Withee, Wisconsin
Current Conditions -  °F | °C
As of 2:35 AM on Saturday 29 Nov 2014 (Local Time) from KMDZ Reporting Station
Haze Haze  
Wind Chill: 14°   Ceiling: 300
Heat Index: 20°   Visibility: 2.5mi
Dew Point: 19°   Wind: 5mph
Humidity: 95%   Direction: 90°E
Pressure: 29.69"   Gusts: NA
Location:  44.96°N, 90.6°W
Report Text: KMDZ 290835Z AUTO 09004KT 2 1/2SM BR OVC003 M06/M07 A2969 RMK AO2 T10651072
Loading
Personal Weather Stations






























Interactive Weather Map New forecast layout! Learn more

10-Day Weather Forecast

Advertisements
Track Severe Weather on mobile